Time;durP1;ratioP1;P1;durP2;ratioP2;P2;SDS_P1;SDS_P2;PMS_P1;PMS_P2;Temp;Humidity;BMP_temperature;BMP_pressure;BME280_temperature;BME280_humidity;BME280_pressure;Samples;Min_cycle;Max_cycle;Signal;HPM_P1;HPM_P2
2024/03/11 00:01:44;;;;;;;;;;;;;;;;;;5046793;28;3490;-63
2024/03/11 00:04:14;;;;;;;;;;;;;;;;;;5032562;28;4873;-62
2024/03/11 00:06:40;;;;;;;;;;;;;;;;;;5051662;28;5142;-61
2024/03/11 00:09:15;;;;;;;;;;;;;;;;;;5044924;28;4705;-62
2024/03/11 00:11:48;;;;;;;;;;;;;;;;;;5042782;28;4585;-62
2024/03/11 00:14:15;;;;;;;;;;;;;;;;;;5046345;28;5126;-62
2024/03/11 00:16:40;;;;;;;;;;;;;;;;;;5043472;28;3397;-62
2024/03/11 00:19:05;;;;;;;;;;;;;;;;;;5046002;28;5970;-66
2024/03/11 00:21:31;;;;;;;;;;;;;;;;;;5040488;28;5173;-62
2024/03/11 00:23:58;;;;;;;;;;;;;;;;;;5042887;28;5166;-61
2024/03/11 00:26:24;;;;;;;;;;;;;;;;;;5041021;28;5183;-62
2024/03/11 00:28:50;;;;;;;;;;;;;;;;;;5047275;28;3644;-63
2024/03/11 00:31:15;;;;;;;;;;;;;;;;;;5026220;28;5022;-61
2024/03/11 00:33:41;;;;;;;;;;;;;;;;;;5043868;28;5081;-60
2024/03/11 00:36:06;;;;;;;;;;;;;;;;;;5044527;28;4900;-61
2024/03/11 00:38:32;;;;;;;;;;;;;;;;;;5041504;28;5157;-63
2024/03/11 00:40:58;;;;;;;;;;;;;;;;;;5049024;28;1653;-61
2024/03/11 00:43:24;;;;;;;;;;;;;;;;;;5042084;28;5229;-63
2024/03/11 00:45:49;;;;;;;;;;;;;;;;;;5026484;28;4601;-63
2024/03/11 00:48:14;;;;;;;;;;;;;;;;;;5025568;28;5216;-62
2024/03/11 00:50:40;;;;;;;;;;;;;;;;;;5043806;28;4659;-62
2024/03/11 00:53:06;;;;;;;;;;;;;;;;;;5046680;28;4579;-64
2024/03/11 00:55:33;;;;;;;;;;;;;;;;;;5048134;28;1072;-61
2024/03/11 00:58:00;;;;;;;;;;;;;;;;;;5046099;28;4468;-61
2024/03/11 01:00:26;;;;;;;;;;;;;;;;;;5042823;28;5142;-60
2024/03/11 01:02:52;;;;;;;;;;;;;;;;;;5046357;28;4872;-60
2024/03/11 01:05:17;;;;;;;;;;;;;;;;;;5027520;28;4540;-62
2024/03/11 01:07:45;;;;;;;;;;;;;;;;;;5039201;28;3509;-60
2024/03/11 01:10:11;;;;;;;;;;;;;;;;;;5034995;28;5046;-61
2024/03/11 01:12:37;;;;;;;;;;;;;;;;;;5020814;28;5076;-61
2024/03/11 01:15:02;;;;;;;;;;;;;;;;;;5018077;28;4712;-60
2024/03/11 01:17:27;;;;;;;;;;;;;;;;;;5025342;28;5138;-61
2024/03/11 01:19:53;;;;;;;;;;;;;;;;;;5037923;28;3675;-61
2024/03/11 01:22:18;;;;;;;;;;;;;;;;;;5027538;28;5026;-61
2024/03/11 01:24:43;;;;;;;;;;;;;;;;;;5025553;28;4940;-62
2024/03/11 01:27:14;;;;;;;;;;;;;;;;;;5028716;28;5008;-61
2024/03/11 01:29:39;;;;;;;;;;;;;;;;;;5033213;28;4520;-61
2024/03/11 01:32:08;;;;;;;;;;;;;;;;;;5032547;28;5138;-61
2024/03/11 01:34:34;;;;;;;;;;;;;;;;;;5019742;28;3459;-61
2024/03/11 01:37:02;;;;;;;;;;;;;;;;;;5034721;28;4658;-60
2024/03/11 01:39:42;;;;;;;;;;;;;;;;;;5038033;28;5158;-61
2024/03/11 01:42:08;;;;;;;;;;;;;;;;;;5034484;28;5243;-61
2024/03/11 01:44:33;;;;;;;;;;;;;;;;;;5039966;28;5055;-62
2024/03/11 01:46:59;;;;;;;;;;;;;;;;;;5040272;28;3481;-62
2024/03/11 01:49:25;;;;;;;;;;;;;;;;;;5043736;28;5080;-61
2024/03/11 01:51:51;;;;;;;;;;;;;;;;;;5014159;28;5193;-59
2024/03/11 01:54:16;;;;;;;;;;;;;;;;;;5042848;28;5310;-62
2024/03/11 01:56:42;;;;;;;;;;;;;;;;;;5042791;28;5065;-62
2024/03/11 01:59:07;;;;;;;;;;;;;;;;;;5029901;28;4659;-61
2024/03/11 02:01:33;;;;;;;;;;;;;;;;;;5016586;28;3469;-65
2024/03/11 02:03:58;;;;;;;;;;;;;;;;;;5035107;28;5080;-62
2024/03/11 02:06:24;;;;;;;;;;;;;;;;;;5036610;28;4473;-61
2024/03/11 02:08:50;;;;;;;;;;;;;;;;;;5047897;28;5109;-62
2024/03/11 02:11:17;;;;;;;;;;;;;;;;;;5048364;28;5142;-62
2024/03/11 02:13:42;;;;;;;;;;;;;;;;;;5044881;28;3490;-62
2024/03/11 02:16:08;;;;;;;;;;;;;;;;;;5050554;28;5011;-62
2024/03/11 02:18:34;;;;;;;;;;;;;;;;;;5068894;28;5074;-63
2024/03/11 02:21:02;;;;;;;;;;;;;;;;;;5041416;28;4539;-61
2024/03/11 02:23:27;;;;;;;;;;;;;;;;;;5052218;28;4541;-62
2024/03/11 02:25:55;;;;;;;;;;;;;;;;;;5034635;28;3416;-61
2024/03/11 02:28:21;;;;;;;;;;;;;;;;;;5048499;28;4468;-62
2024/03/11 02:30:47;;;;;;;;;;;;;;;;;;5047207;28;5069;-62
2024/03/11 02:33:12;;;;;;;;;;;;;;;;;;5048539;28;4740;-61
2024/03/11 02:35:38;;;;;;;;;;;;;;;;;;5013207;28;5080;-62
2024/03/11 02:38:04;;;;;;;;;;;;;;;;;;5049316;28;4700;-61
2024/03/11 02:40:31;;;;;;;;;;;;;;;;;;5053100;28;3592;-61
2024/03/11 02:42:56;;;;;;;;;;;;;;;;;;5056283;28;4454;-60
2024/03/11 02:45:25;;;;;;;;;;;;;;;;;;5040300;28;5027;-64
2024/03/11 02:47:51;;;;;;;;;;;;;;;;;;5058738;28;4567;-62
2024/03/11 02:50:16;;;;;;;;;;;;;;;;;;5048318;28;5112;-61
2024/03/11 02:52:42;;;;;;;;;;;;;;;;;;5054282;28;1124;-62
2024/03/11 02:55:13;;;;;;;;;;;;;;;;;;5037259;28;5009;-62
2024/03/11 02:57:39;;;;;;;;;;;;;;;;;;5050696;28;4507;-63
2024/03/11 03:00:10;;;;;;;;;;;;;;;;;;5047627;28;4667;-65
2024/03/11 03:02:36;;;;;;;;;;;;;;;;;;5049622;28;4947;-60
2024/03/11 03:05:02;;;;;;;;;;;;;;;;;;5046219;28;4656;-60
2024/03/11 03:07:27;;;;;;;;;;;;;;;;;;5027272;28;3399;-62
2024/03/11 03:09:52;;;;;;;;;;;;;;;;;;5043850;28;4641;-61
2024/03/11 03:12:18;;;;;;;;;;;;;;;;;;5028595;28;5073;-61
2024/03/11 03:14:43;;;;;;;;;;;;;;;;;;5042277;28;5068;-62
2024/03/11 03:17:09;;;;;;;;;;;;;;;;;;5048186;28;5172;-64
2024/03/11 03:19:37;;;;;;;;;;;;;;;;;;5044604;28;3586;-62
2024/03/11 03:22:02;;;;;;;;;;;;;;;;;;5044433;28;5124;-60
2024/03/11 03:24:29;;;;;;;;;;;;;;;;;;5041704;28;4921;-62
2024/03/11 03:26:54;;;;;;;;;;;;;;;;;;5044534;28;5245;-61
2024/03/11 03:29:19;;;;;;;;;;;;;;;;;;5058013;28;4742;-61
2024/03/11 03:31:45;;;;;;;;;;;;;;;;;;5043585;28;3585;-61
2024/03/11 03:34:11;;;;;;;;;;;;;;;;;;5028067;28;5401;-65
2024/03/11 03:36:38;;;;;;;;;;;;;;;;;;5041880;28;4668;-63
2024/03/11 03:39:03;;;;;;;;;;;;;;;;;;5044657;28;4945;-63
2024/03/11 03:41:29;;;;;;;;;;;;;;;;;;5046064;28;5127;-62
2024/03/11 03:43:54;;;;;;;;;;;;;;;;;;5054866;28;3327;-62
2024/03/11 03:46:20;;;;;;;;;;;;;;;;;;5045199;28;4506;-63
2024/03/11 03:48:48;;;;;;;;;;;;;;;;;;5021725;28;5163;-61
2024/03/11 03:51:14;;;;;;;;;;;;;;;;;;5042842;28;4552;-61
2024/03/11 03:53:39;;;;;;;;;;;;;;;;;;5053426;28;5308;-62
2024/03/11 03:56:05;;;;;;;;;;;;;;;;;;5046747;28;5097;-60
2024/03/11 03:58:30;;;;;;;;;;;;;;;;;;5052071;28;3898;-63
2024/03/11 04:00:56;;;;;;;;;;;;;;;;;;5042300;28;5083;-61
2024/03/11 04:03:23;;;;;;;;;;;;;;;;;;5054847;28;4944;-62
2024/03/11 04:05:48;;;;;;;;;;;;;;;;;;5067792;28;4961;-60
2024/03/11 04:08:15;;;;;;;;;;;;;;;;;;5051334;28;4523;-62
2024/03/11 04:10:40;;;;;;;;;;;;;;;;;;5059424;28;3459;-61
2024/03/11 04:13:06;;;;;;;;;;;;;;;;;;5046502;28;4924;-61
2024/03/11 04:15:31;;;;;;;;;;;;;;;;;;5048970;28;4470;-62
2024/03/11 04:17:57;;;;;;;;;;;;;;;;;;5054976;28;4499;-62
2024/03/11 04:20:23;;;;;;;;;;;;;;;;;;5048383;28;5124;-61
2024/03/11 04:22:49;;;;;;;;;;;;;;;;;;5078775;28;1217;-61
2024/03/11 04:25:18;;;;;;;;;;;;;;;;;;5052086;28;5161;-62
2024/03/11 04:27:45;;;;;;;;;;;;;;;;;;5060836;28;4615;-61
2024/03/11 04:30:12;;;;;;;;;;;;;;;;;;5049785;28;5071;-60
2024/03/11 04:32:40;;;;;;;;;;;;;;;;;;5049918;28;5105;-61
2024/03/11 04:35:06;;;;;;;;;;;;;;;;;;5044859;28;5115;-63
2024/03/11 04:37:31;;;;;;;;;;;;;;;;;;5057890;28;1105;-61
2024/03/11 04:39:58;;;;;;;;;;;;;;;;;;5059282;28;4696;-61
2024/03/11 04:42:24;;;;;;;;;;;;;;;;;;5062655;28;4718;-62
2024/03/11 04:44:49;;;;;;;;;;;;;;;;;;5052348;28;4556;-62
2024/03/11 04:47:15;;;;;;;;;;;;;;;;;;5043603;28;5270;-62
2024/03/11 04:49:41;;;;;;;;;;;;;;;;;;5051084;28;3504;-63
2024/03/11 04:52:08;;;;;;;;;;;;;;;;;;5052934;28;4824;-64
2024/03/11 04:54:33;;;;;;;;;;;;;;;;;;5056576;28;5060;-66
2024/03/11 04:57:00;;;;;;;;;;;;;;;;;;5027007;28;4947;-62
2024/03/11 04:59:26;;;;;;;;;;;;;;;;;;5047750;28;5067;-63
2024/03/11 05:01:51;;;;;;;;;;;;;;;;;;5056513;28;3093;-62
2024/03/11 05:04:16;;;;;;;;;;;;;;;;;;5052957;28;5690;-61
2024/03/11 05:06:42;;;;;;;;;;;;;;;;;;5049210;28;5102;-64
2024/03/11 05:09:07;;;;;;;;;;;;;;;;;;5049450;28;5048;-62
2024/03/11 05:11:33;;;;;;;;;;;;;;;;;;5040911;28;5118;-63
2024/03/11 05:13:58;;;;;;;;;;;;;;;;;;5049092;28;3373;-61
2024/03/11 05:16:23;;;;;;;;;;;;;;;;;;5045760;28;4683;-62
2024/03/11 05:18:50;;;;;;;;;;;;;;;;;;5042383;28;5050;-62
2024/03/11 05:21:16;;;;;;;;;;;;;;;;;;5040049;28;4714;-61
2024/03/11 05:23:41;;;;;;;;;;;;;;;;;;5043103;28;5089;-62
2024/03/11 05:26:07;;;;;;;;;;;;;;;;;;5039628;28;5073;-63
2024/03/11 05:28:32;;;;;;;;;;;;;;;;;;5046930;28;3516;-62
2024/03/11 05:30:58;;;;;;;;;;;;;;;;;;5043860;28;5154;-65
2024/03/11 05:33:23;;;;;;;;;;;;;;;;;;5026194;28;5950;-61
2024/03/11 05:35:49;;;;;;;;;;;;;;;;;;5044332;28;4531;-61
2024/03/11 05:38:14;;;;;;;;;;;;;;;;;;5050779;28;4543;-60
2024/03/11 05:40:40;;;;;;;;;;;;;;;;;;5052774;28;3279;-61
2024/03/11 05:43:05;;;;;;;;;;;;;;;;;;5040930;28;4966;-62
2024/03/11 05:45:31;;;;;;;;;;;;;;;;;;5042610;28;4786;-61
2024/03/11 05:47:56;;;;;;;;;;;;;;;;;;5043247;28;5255;-60
2024/03/11 05:50:21;;;;;;;;;;;;;;;;;;5043986;28;5084;-61
2024/03/11 05:52:48;;;;;;;;;;;;;;;;;;5026791;28;3392;-61
2024/03/11 05:55:13;;;;;;;;;;;;;;;;;;5036423;28;5173;-61
2024/03/11 05:57:40;;;;;;;;;;;;;;;;;;5044164;28;4703;-61
2024/03/11 06:00:09;;;;;;;;;;;;;;;;;;5044444;28;5151;-62
2024/03/11 06:02:36;;;;;;;;;;;;;;;;;;5042905;28;5164;-62
2024/03/11 06:05:02;;;;;;;;;;;;;;;;;;5044898;28;5591;-61
2024/03/11 06:07:28;;;;;;;;;;;;;;;;;;5053954;28;1303;-61
2024/03/11 06:09:53;;;;;;;;;;;;;;;;;;5023916;28;5092;-60
2024/03/11 06:12:22;;;;;;;;;;;;;;;;;;5033699;28;4540;-61
2024/03/11 06:14:47;;;;;;;;;;;;;;;;;;5035300;28;5130;-61
2024/03/11 06:17:12;;;;;;;;;;;;;;;;;;5040126;28;4560;-61
2024/03/11 06:19:38;;;;;;;;;;;;;;;;;;5036703;28;1155;-61
2024/03/11 06:22:03;;;;;;;;;;;;;;;;;;5032501;28;5121;-61
2024/03/11 06:24:30;;;;;;;;;;;;;;;;;;5034764;28;4687;-61
2024/03/11 06:26:56;;;;;;;;;;;;;;;;;;5044526;28;5032;-61
2024/03/11 06:29:22;;;;;;;;;;;;;;;;;;5046015;28;4549;-61
2024/03/11 06:31:48;;;;;;;;;;;;;;;;;;5036645;28;3610;-61
2024/03/11 06:34:14;;;;;;;;;;;;;;;;;;5045410;28;4869;-61
2024/03/11 06:36:41;;;;;;;;;;;;;;;;;;5025612;28;4921;-61
2024/03/11 06:39:07;;;;;;;;;;;;;;;;;;5053007;28;5277;-62
2024/03/11 06:41:33;;;;;;;;;;;;;;;;;;5039922;28;5294;-62
2024/03/11 06:44:00;;;;;;;;;;;;;;;;;;5036815;28;2461;-62
2024/03/11 06:46:25;;;;;;;;;;;;;;;;;;5035083;28;4967;-62
2024/03/11 06:48:51;;;;;;;;;;;;;;;;;;5039159;28;4655;-62
2024/03/11 06:51:16;;;;;;;;;;;;;;;;;;5030310;28;4632;-62
2024/03/11 06:53:41;;;;;;;;;;;;;;;;;;5031445;28;5159;-61
2024/03/11 06:56:07;;;;;;;;;;;;;;;;;;5029768;28;5021;-62
2024/03/11 06:58:32;;;;;;;;;;;;;;;;;;5041974;28;3499;-61
2024/03/11 07:00:58;;;;;;;;;;;;;;;;;;5034291;28;4524;-61
2024/03/11 07:03:26;;;;;;;;;;;;;;;;;;5033480;28;4684;-61
2024/03/11 07:05:51;;;;;;;;;;;;;;;;;;5027431;28;5938;-62
2024/03/11 07:08:17;;;;;;;;;;;;;;;;;;5037804;28;5182;-61
2024/03/11 07:10:42;;;;;;;;;;;;;;;;;;5058801;28;1167;-61
2024/03/11 07:13:07;;;;;;;;;;;;;;;;;;5056633;28;5128;-61
2024/03/11 07:15:34;;;;;;;;;;;;;;;;;;5041256;28;4836;-61
2024/03/11 07:18:00;;;;;;;;;;;;;;;;;;5054810;28;5065;-61
2024/03/11 07:20:26;;;;;;;;;;;;;;;;;;5052824;28;5070;-61
2024/03/11 07:22:52;;;;;;;;;;;;;;;;;;5036448;28;3344;-61
2024/03/11 07:25:17;;;;;;;;;;;;;;;;;;5054488;28;4627;-62
2024/03/11 07:27:47;;;;;;;;;;;;;;;;;;5056132;28;5029;-62
2024/03/11 07:30:12;;;;;;;;;;;;;;;;;;5057308;28;5130;-62
2024/03/11 07:32:38;;;;;;;;;;;;;;;;;;5055843;28;4675;-61
2024/03/11 07:35:03;;;;;;;;;;;;;;;;;;5050601;28;5054;-61
2024/03/11 07:37:29;;;;;;;;;;;;;;;;;;5059843;28;2156;-61
2024/03/11 07:39:54;;;;;;;;;;;;;;;;;;5060845;28;5043;-61
2024/03/11 07:42:22;;;;;;;;;;;;;;;;;;5060704;28;4498;-61
2024/03/11 07:44:48;;;;;;;;;;;;;;;;;;5061273;28;5057;-62
2024/03/11 07:47:13;;;;;;;;;;;;;;;;;;5055903;28;5017;-61
2024/03/11 07:49:39;;;;;;;;;;;;;;;;;;5050944;28;3362;-61
2024/03/11 07:52:06;;;;;;;;;;;;;;;;;;5045353;28;4462;-61
2024/03/11 07:54:31;;;;;;;;;;;;;;;;;;5076097;28;5045;-61
2024/03/11 07:56:56;;;;;;;;;;;;;;;;;;5052525;28;5398;-62
2024/03/11 07:59:22;;;;;;;;;;;;;;;;;;5060740;28;5087;-61
2024/03/11 08:01:47;;;;;;;;;;;;;;;;;;5037634;28;3455;-61
2024/03/11 08:04:13;;;;;;;;;;;;;;;;;;5058199;28;5433;-61
2024/03/11 08:06:39;;;;;;;;;;;;;;;;;;5063414;28;5964;-61
2024/03/11 08:09:07;;;;;;;;;;;;;;;;;;5052538;28;5264;-61
2024/03/11 08:11:34;;;;;;;;;;;;;;;;;;5062632;28;4475;-62
2024/03/11 08:14:02;;;;;;;;;;;;;;;;;;5056767;28;1057;-61
2024/03/11 08:16:28;;;;;;;;;;;;;;;;;;5051004;28;5250;-61
2024/03/11 08:18:53;;;;;;;;;;;;;;;;;;5064229;28;4631;-60
2024/03/11 08:21:20;;;;;;;;;;;;;;;;;;5053767;28;5437;-61
2024/03/11 08:23:45;;;;;;;;;;;;;;;;;;5054833;28;4799;-60
2024/03/11 08:26:11;;;;;;;;;;;;;;;;;;5055371;28;4946;-60
2024/03/11 08:28:38;;;;;;;;;;;;;;;;;;5060959;28;3391;-60
2024/03/11 08:31:07;;;;;;;;;;;;;;;;;;5054954;28;4749;-61
2024/03/11 08:33:33;;;;;;;;;;;;;;;;;;5064575;28;5066;-61
2024/03/11 08:35:58;;;;;;;;;;;;;;;;;;5054520;28;4990;-62
2024/03/11 08:38:25;;;;;;;;;;;;;;;;;;5051737;28;4540;-62
2024/03/11 08:40:50;;;;;;;;;;;;;;;;;;5067637;28;3332;-61
2024/03/11 08:43:18;;;;;;;;;;;;;;;;;;5049168;28;4430;-61
2024/03/11 08:45:44;;;;;;;;;;;;;;;;;;5051868;28;5074;-62
2024/03/11 08:48:10;;;;;;;;;;;;;;;;;;5054984;28;5109;-60
2024/03/11 08:50:35;;;;;;;;;;;;;;;;;;5051511;28;5136;-61
2024/03/11 08:53:01;;;;;;;;;;;;;;;;;;5039700;28;4550;-62
2024/03/11 08:55:26;;;;;;;;;;;;;;;;;;5059694;28;1225;-62
2024/03/11 08:57:55;;;;;;;;;;;;;;;;;;5052783;28;5012;-62
2024/03/11 09:00:27;;;;;;;;;;;;;;;;;;5059887;28;5035;-61
2024/03/11 09:02:54;;;;;;;;;;;;;;;;;;5059458;28;4703;-61
2024/03/11 09:05:20;;;;;;;;;;;;;;;;;;5057723;28;5190;-61
2024/03/11 09:07:46;;;;;;;;;;;;;;;;;;5048286;28;3258;-60
2024/03/11 09:10:12;;;;;;;;;;;;;;;;;;5033422;28;4703;-61
2024/03/11 09:12:37;;;;;;;;;;;;;;;;;;5069613;28;4515;-61
2024/03/11 09:15:04;;;;;;;;;;;;;;;;;;5055561;28;4979;-62
2024/03/11 09:17:29;;;;;;;;;;;;;;;;;;5044998;28;5111;-62
2024/03/11 09:19:54;;;;;;;;;;;;;;;;;;5063569;28;1179;-62
2024/03/11 09:22:21;;;;;;;;;;;;;;;;;;5053217;28;5095;-62
2024/03/11 09:24:46;;;;;;;;;;;;;;;;;;5057277;28;4778;-62
2024/03/11 09:27:11;;;;;;;;;;;;;;;;;;5071907;28;5276;-61
2024/03/11 09:29:37;;;;;;;;;;;;;;;;;;5062705;28;4628;-61
2024/03/11 09:32:03;;;;;;;;;;;;;;;;;;5057241;28;5266;-61
2024/03/11 09:34:31;;;;;;;;;;;;;;;;;;5060148;28;1136;-61
2024/03/11 09:36:57;;;;;;;;;;;;;;;;;;5051722;28;5084;-61
2024/03/11 09:39:22;;;;;;;;;;;;;;;;;;5050466;28;4997;-61
2024/03/11 09:41:48;;;;;;;;;;;;;;;;;;5058010;28;4978;-61
2024/03/11 09:44:18;;;;;;;;;;;;;;;;;;5062164;28;4706;-62
2024/03/11 09:46:45;;;;;;;;;;;;;;;;;;5056196;28;1105;-62
2024/03/11 09:49:10;;;;;;;;;;;;;;;;;;5070513;28;4572;-62
2024/03/11 09:51:37;;;;;;;;;;;;;;;;;;5063217;28;4642;-62
2024/03/11 09:54:05;;;;;;;;;;;;;;;;;;5032078;28;5087;-62
2024/03/11 09:56:34;;;;;;;;;;;;;;;;;;5058704;28;5041;-61
2024/03/11 09:59:00;;;;;;;;;;;;;;;;;;5053601;28;5114;-61
2024/03/11 10:01:30;;;;;;;;;;;;;;;;;;5041258;28;1132;-61
2024/03/11 10:03:56;;;;;;;;;;;;;;;;;;5061910;28;4991;-61
2024/03/11 10:06:24;;;;;;;;;;;;;;;;;;5052101;28;4949;-62
2024/03/11 10:08:49;;;;;;;;;;;;;;;;;;5032666;28;4918;-62
2024/03/11 10:11:21;;;;;;;;;;;;;;;;;;5063907;28;5162;-61
2024/03/11 10:13:47;;;;;;;;;;;;;;;;;;5062809;28;1211;-62
2024/03/11 10:16:24;;;;;;;;;;;;;;;;;;5060818;28;4980;-61
2024/03/11 10:19:11;;;;;;;;;;;;;;;;;;5057117;28;4633;-61
2024/03/11 10:21:36;;;;;;;;;;;;;;;;;;5056511;28;5057;-62
2024/03/11 10:24:03;;;;;;;;;;;;;;;;;;5042965;28;5019;-61
2024/03/11 10:26:33;;;;;;;;;;;;;;;;;;5048951;28;4766;-61
2024/03/11 10:29:00;;;;;;;;;;;;;;;;;;5053834;28;3695;-62
2024/03/11 10:31:33;;;;;;;;;;;;;;;;;;5061399;28;6336;-62
2024/03/11 10:34:09;;;;;;;;;;;;;;;;;;5061441;28;4512;-62
2024/03/11 10:36:35;;;;;;;;;;;;;;;;;;5067257;28;4531;-61
2024/03/11 10:39:18;;;;;;;;;;;;;;;;;;5060608;28;5056;-61
2024/03/11 10:41:43;;;;;;;;;;;;;;;;;;5047608;28;5059;-61
2024/03/11 10:44:13;;;;;;;;;;;;;;;;;;5060483;28;5120;-61
2024/03/11 10:46:39;;;;;;;;;;;;;;;;;;5058587;28;3232;-61
2024/03/11 10:49:06;;;;;;;;;;;;;;;;;;5052605;28;4989;-61
2024/03/11 10:51:31;;;;;;;;;;;;;;;;;;5062717;28;4493;-62
2024/03/11 10:53:57;;;;;;;;;;;;;;;;;;5059782;28;5112;-62
2024/03/11 10:56:25;;;;;;;;;;;;;;;;;;5077810;28;4945;-62
2024/03/11 10:59:00;;;;;;;;;;;;;;;;;;5055609;28;3334;-62
2024/03/11 11:01:31;;;;;;;;;;;;;;;;;;5068016;28;5427;-62
2024/03/11 11:03:58;;;;;;;;;;;;;;;;;;5059806;28;4846;-61
2024/03/11 11:06:27;;;;;;;;;;;;;;;;;;5051005;28;4481;-61
2024/03/11 11:08:53;;;;;;;;;;;;;;;;;;5050371;28;5112;-62
2024/03/11 11:11:19;;;;;;;;;;;;;;;;;;5051752;28;4509;-62
2024/03/11 11:13:46;;;;;;;;;;;;;;;;;;5060374;28;3275;-61
2024/03/11 11:16:13;;;;;;;;;;;;;;;;;;5051150;28;5051;-61
2024/03/11 11:18:39;;;;;;;;;;;;;;;;;;5077655;28;4504;-61
2024/03/11 11:21:04;;;;;;;;;;;;;;;;;;5061789;28;5202;-61
2024/03/11 11:23:34;;;;;;;;;;;;;;;;;;5060689;28;4671;-61
2024/03/11 11:25:59;;;;;;;;;;;;;;;;;;5071267;28;2447;-61
2024/03/11 11:28:26;;;;;;;;;;;;;;;;;;5052238;28;4482;-61
2024/03/11 11:31:11;;;;;;;;;;;;;;;;;;5055419;28;5177;-61
2024/03/11 11:33:53;;;;;;;;;;;;;;;;;;5052447;28;4511;-61
2024/03/11 11:36:36;;;;;;;;;;;;;;;;;;5055804;28;5083;-62
2024/03/11 11:39:13;;;;;;;;;;;;;;;;;;5056360;28;5079;-62
2024/03/11 11:41:40;;;;;;;;;;;;;;;;;;5046421;28;5063;-62
2024/03/11 11:44:07;;;;;;;;;;;;;;;;;;5058502;28;5009;-62
2024/03/11 11:46:46;;;;;;;;;;;;;;;;;;5049023;28;3385;-61
2024/03/11 11:49:18;;;;;;;;;;;;;;;;;;5054431;28;4505;-61
2024/03/11 11:51:45;;;;;;;;;;;;;;;;;;5042720;28;5104;-61
2024/03/11 11:54:22;;;;;;;;;;;;;;;;;;5061974;28;5020;-61
2024/03/11 11:56:48;;;;;;;;;;;;;;;;;;5057566;28;5099;-62
2024/03/11 11:59:20;;;;;;;;;;;;;;;;;;5054402;28;5210;-62
2024/03/11 12:01:49;;;;;;;;;;;;;;;;;;5054110;28;1125;-61
2024/03/11 12:04:14;;;;;;;;;;;;;;;;;;5053431;28;4446;-60
2024/03/11 12:06:40;;;;;;;;;;;;;;;;;;5064585;28;4720;-61
2024/03/11 12:09:12;;;;;;;;;;;;;;;;;;5061601;28;5092;-62
2024/03/11 12:11:41;;;;;;;;;;;;;;;;;;5077101;28;5164;-61
2024/03/11 12:14:09;;;;;;;;;;;;;;;;;;5046458;28;5025;-62
2024/03/11 12:16:34;;;;;;;;;;;;;;;;;;5061534;28;1141;-62
2024/03/11 12:19:00;;;;;;;;;;;;;;;;;;5071479;28;4520;-62
2024/03/11 12:21:27;;;;;;;;;;;;;;;;;;5046703;28;4494;-62
2024/03/11 12:23:53;;;;;;;;;;;;;;;;;;5057468;28;5004;-62
2024/03/11 12:26:18;;;;;;;;;;;;;;;;;;5056309;28;4990;-62
2024/03/11 12:28:59;;;;;;;;;;;;;;;;;;5050541;28;1115;-61
2024/03/11 12:31:25;;;;;;;;;;;;;;;;;;5042294;28;4420;-61
2024/03/11 12:33:51;;;;;;;;;;;;;;;;;;5059383;28;4521;-61
2024/03/11 12:36:16;;;;;;;;;;;;;;;;;;5045227;28;4618;-61
2024/03/11 12:38:42;;;;;;;;;;;;;;;;;;5070712;28;5276;-61
2024/03/11 12:41:07;;;;;;;;;;;;;;;;;;5071893;28;5219;-62
2024/03/11 12:43:35;;;;;;;;;;;;;;;;;;5048463;28;2182;-62
2024/03/11 12:46:02;;;;;;;;;;;;;;;;;;5060380;28;5086;-62
2024/03/11 12:48:28;;;;;;;;;;;;;;;;;;5060907;28;5364;-62
2024/03/11 12:51:02;;;;;;;;;;;;;;;;;;5052564;28;5161;-62
2024/03/11 12:53:31;;;;;;;;;;;;;;;;;;5053977;28;5087;-62
2024/03/11 12:56:03;;;;;;;;;;;;;;;;;;5050833;28;3495;-61
2024/03/11 12:58:30;;;;;;;;;;;;;;;;;;5058420;28;5010;-62
2024/03/11 13:01:01;;;;;;;;;;;;;;;;;;5063332;28;5211;-62
2024/03/11 13:03:26;;;;;;;;;;;;;;;;;;5056330;28;5168;-62
2024/03/11 13:05:52;;;;;;;;;;;;;;;;;;5052884;28;5078;-62
2024/03/11 13:08:17;;;;;;;;;;;;;;;;;;5060356;28;5305;-62
2024/03/11 13:10:43;;;;;;;;;;;;;;;;;;5034029;28;3377;-61
2024/03/11 13:13:16;;;;;;;;;;;;;;;;;;5067833;28;5132;-62
2024/03/11 13:15:41;;;;;;;;;;;;;;;;;;5051530;28;4706;-61
2024/03/11 13:18:08;;;;;;;;;;;;;;;;;;5055317;28;5449;-61
2024/03/11 13:20:39;;;;;;;;;;;;;;;;;;5046711;28;5221;-61
2024/03/11 13:23:11;;;;;;;;;;;;;;;;;;5051293;28;4734;-62
2024/03/11 13:25:36;;;;;;;;;;;;;;;;;;5055481;28;1926;-62
2024/03/11 13:28:06;;;;;;;;;;;;;;;;;;5061295;28;4700;-61
2024/03/11 13:30:34;;;;;;;;;;;;;;;;;;5062248;28;4966;-61
2024/03/11 13:33:00;;;;;;;;;;;;;;;;;;5061241;28;5092;-62
2024/03/11 13:35:25;;;;;;;;;;;;;;;;;;5058104;28;5253;-62
2024/03/11 13:37:50;;;;;;;;;;;;;;;;;;5048716;28;1254;-61
2024/03/11 13:40:19;;;;;;;;;;;;;;;;;;5058048;28;4587;-61
2024/03/11 13:42:44;;;;;;;;;;;;;;;;;;5064111;28;5111;-61
2024/03/11 13:45:12;;;;;;;;;;;;;;;;;;5062724;28;5078;-61
2024/03/11 13:47:38;;;;;;;;;;;;;;;;;;5070142;28;5053;-61
2024/03/11 13:50:04;;;;;;;;;;;;;;;;;;5062098;28;5120;-61
2024/03/11 13:52:30;;;;;;;;;;;;;;;;;;5074323;28;1768;-62
2024/03/11 13:54:55;;;;;;;;;;;;;;;;;;5060553;28;5041;-61
2024/03/11 13:57:21;;;;;;;;;;;;;;;;;;5062431;28;5232;-62
2024/03/11 13:59:47;;;;;;;;;;;;;;;;;;5058666;28;4517;-61
2024/03/11 14:02:12;;;;;;;;;;;;;;;;;;5061655;28;4719;-61
2024/03/11 14:04:38;;;;;;;;;;;;;;;;;;5038827;28;2324;-61
2024/03/11 14:07:05;;;;;;;;;;;;;;;;;;5069641;28;4625;-62
2024/03/11 14:09:30;;;;;;;;;;;;;;;;;;5047142;28;4618;-62
2024/03/11 14:11:56;;;;;;;;;;;;;;;;;;5049951;28;4495;-61
2024/03/11 14:14:21;;;;;;;;;;;;;;;;;;5015259;28;4705;-62
2024/03/11 14:16:48;;;;;;;;;;;;;;;;;;5044411;28;3355;-62
2024/03/11 14:19:16;;;;;;;;;;;;;;;;;;5022232;28;5523;-62
2024/03/11 14:21:41;;;;;;;;;;;;;;;;;;5043511;28;5139;-62
2024/03/11 14:24:09;;;;;;;;;;;;;;;;;;5040702;28;4587;-61
2024/03/11 14:26:34;;;;;;;;;;;;;;;;;;5042881;28;5168;-61
2024/03/11 14:28:59;;;;;;;;;;;;;;;;;;5033518;28;3480;-61
2024/03/11 14:31:25;;;;;;;;;;;;;;;;;;5013737;28;6839;-61
2024/03/11 14:33:51;;;;;;;;;;;;;;;;;;5031651;28;4750;-61
2024/03/11 14:36:18;;;;;;;;;;;;;;;;;;5035777;28;4553;-62
2024/03/11 14:38:44;;;;;;;;;;;;;;;;;;5027891;28;5057;-62
2024/03/11 14:41:12;;;;;;;;;;;;;;;;;;5042419;28;5120;-62
2024/03/11 14:43:38;;;;;;;;;;;;;;;;;;5050696;28;1975;-62
2024/03/11 14:46:04;;;;;;;;;;;;;;;;;;5055677;28;4929;-62
2024/03/11 14:48:32;;;;;;;;;;;;;;;;;;5039785;28;5038;-61
2024/03/11 14:50:57;;;;;;;;;;;;;;;;;;5007362;28;6003;-63
2024/03/11 14:53:26;;;;;;;;;;;;;;;;;;5034347;28;4492;-61
2024/03/11 14:55:51;;;;;;;;;;;;;;;;;;5042980;28;1169;-62
2024/03/11 14:58:20;;;;;;;;;;;;;;;;;;5036767;28;4658;-63
2024/03/11 15:00:54;;;;;;;;;;;;;;;;;;5037219;28;4957;-62
2024/03/11 15:03:20;;;;;;;;;;;;;;;;;;5025539;28;4966;-62
2024/03/11 15:05:45;;;;;;;;;;;;;;;;;;5024125;28;5362;-62
2024/03/11 15:08:19;;;;;;;;;;;;;;;;;;5033146;28;4722;-62
2024/03/11 15:10:44;;;;;;;;;;;;;;;;;;5026746;28;3514;-61
2024/03/11 15:13:11;;;;;;;;;;;;;;;;;;5040165;28;5024;-62
2024/03/11 15:15:36;;;;;;;;;;;;;;;;;;5033121;28;5000;-62
2024/03/11 15:18:04;;;;;;;;;;;;;;;;;;5025540;28;4921;-63
2024/03/11 15:20:33;;;;;;;;;;;;;;;;;;5023394;28;4592;-62
2024/03/11 15:22:58;;;;;;;;;;;;;;;;;;5031050;28;1130;-61
2024/03/11 15:25:24;;;;;;;;;;;;;;;;;;5035704;28;4836;-62
2024/03/11 15:27:51;;;;;;;;;;;;;;;;;;5025955;28;5210;-62
2024/03/11 15:30:17;;;;;;;;;;;;;;;;;;5028748;28;5208;-61
2024/03/11 15:32:42;;;;;;;;;;;;;;;;;;5027029;28;5076;-62
2024/03/11 15:35:08;;;;;;;;;;;;;;;;;;5027993;28;4655;-62
2024/03/11 15:37:35;;;;;;;;;;;;;;;;;;5030465;28;3551;-62
2024/03/11 15:40:04;;;;;;;;;;;;;;;;;;5038089;28;4471;-62
2024/03/11 15:42:33;;;;;;;;;;;;;;;;;;5034400;28;5112;-62
2024/03/11 15:45:00;;;;;;;;;;;;;;;;;;5053506;28;4949;-62
2024/03/11 15:47:26;;;;;;;;;;;;;;;;;;5035801;28;4663;-62
2024/03/11 15:49:52;;;;;;;;;;;;;;;;;;5036024;28;3237;-62
2024/03/11 15:52:20;;;;;;;;;;;;;;;;;;5028447;28;5924;-62
2024/03/11 15:54:47;;;;;;;;;;;;;;;;;;5038246;28;4988;-62
2024/03/11 15:57:13;;;;;;;;;;;;;;;;;;5046592;28;5208;-62
2024/03/11 15:59:38;;;;;;;;;;;;;;;;;;5017087;28;4563;-62
2024/03/11 16:02:05;;;;;;;;;;;;;;;;;;5046639;28;4604;-62
2024/03/11 16:04:32;;;;;;;;;;;;;;;;;;5029421;28;3319;-62
2024/03/11 16:06:57;;;;;;;;;;;;;;;;;;5026575;28;4941;-61
2024/03/11 16:10:11;;;;;;;;;;;;;;;;;;5047334;28;5042;-61
2024/03/11 16:12:11;;;;;;;;;;;;;;;;;;5038363;28;4924;-62
2024/03/11 16:14:37;;;;;;;;;;;;;;;;;;5058631;28;4675;-62
2024/03/11 16:17:04;;;;;;;;;;;;;;;;;;5049912;28;4971;-62
2024/03/11 16:19:30;;;;;;;;;;;;;;;;;;5044081;28;3303;-62
2024/03/11 16:21:55;;;;;;;;;;;;;;;;;;5046278;28;5056;-63
2024/03/11 16:24:20;;;;;;;;;;;;;;;;;;5053089;28;4987;-63
2024/03/11 16:26:46;;;;;;;;;;;;;;;;;;5047892;28;5167;-63
2024/03/11 16:29:13;;;;;;;;;;;;;;;;;;5039351;28;5080;-64
2024/03/11 16:31:40;;;;;;;;;;;;;;;;;;5039868;28;4805;-65
2024/03/11 16:34:08;;;;;;;;;;;;;;;;;;5052900;28;4651;-66
2024/03/11 16:36:37;;;;;;;;;;;;;;;;;;5035694;28;5011;-67
2024/03/11 16:39:03;;;;;;;;;;;;;;;;;;5049881;28;5018;-64
2024/03/11 16:41:28;;;;;;;;;;;;;;;;;;5039018;28;4559;-67
2024/03/11 16:43:55;;;;;;;;;;;;;;;;;;5048436;28;3462;-64
2024/03/11 16:46:20;;;;;;;;;;;;;;;;;;5041431;28;5061;-64
2024/03/11 16:48:45;;;;;;;;;;;;;;;;;;5040622;28;4748;-65
2024/03/11 16:51:11;;;;;;;;;;;;;;;;;;5050830;28;5684;-63
2024/03/11 16:53:38;;;;;;;;;;;;;;;;;;5047694;28;5203;-65
2024/03/11 16:56:04;;;;;;;;;;;;;;;;;;5050204;28;5045;-68
2024/03/11 16:58:30;;;;;;;;;;;;;;;;;;5046348;28;3381;-70
2024/03/11 17:00:56;;;;;;;;;;;;;;;;;;5053771;28;4649;-72